createdAt,value
2023-12-14T00:00:10.259Z,8.88
2023-12-14T00:02:38.793Z,8.86
2023-12-14T00:05:07.906Z,8.74
2023-12-14T00:07:36.190Z,9.04
2023-12-14T00:10:06.021Z,8.95
2023-12-14T00:12:34.361Z,8.96
2023-12-14T00:15:02.626Z,8.64
2023-12-14T00:17:32.900Z,8.93
2023-12-14T00:20:01.701Z,8.78
2023-12-14T00:22:29.966Z,8.71
2023-12-14T00:24:58.156Z,8.76
2023-12-14T00:27:26.314Z,8.56
2023-12-14T00:29:54.493Z,8.48
2023-12-14T00:32:22.632Z,8.47
2023-12-14T00:34:52.149Z,8.67
2023-12-14T00:37:20.378Z,8.55
2023-12-14T00:39:48.526Z,8.34
2023-12-14T00:42:16.698Z,8.45
2023-12-14T00:44:44.857Z,8.39
2023-12-14T00:47:13.104Z,8.51
2023-12-14T00:49:41.361Z,8.55
2023-12-14T00:52:10.903Z,8.49
2023-12-14T00:54:39.023Z,8.29
2023-12-14T00:57:07.306Z,8.45
2023-12-14T00:59:35.544Z,8.60
2023-12-14T01:02:03.766Z,8.55
2023-12-14T01:04:32.323Z,8.54
2023-12-14T01:07:00.566Z,8.38
2023-12-14T01:09:30.760Z,8.33
2023-12-14T01:11:59.830Z,8.49
2023-12-14T01:14:28.614Z,8.45
2023-12-14T01:16:56.912Z,8.51
2023-12-14T01:19:26.341Z,8.43
2023-12-14T01:21:56.599Z,8.49
2023-12-14T01:24:24.786Z,8.58
2023-12-14T01:26:54.265Z,8.35
2023-12-14T01:29:22.460Z,8.47
2023-12-14T01:31:50.664Z,8.40
2023-12-14T01:34:18.956Z,8.56
2023-12-14T01:36:47.185Z,8.66
2023-12-14T01:39:16.693Z,8.56
2023-12-14T01:41:44.918Z,8.40
2023-12-14T01:44:14.467Z,8.45
2023-12-14T01:46:42.633Z,8.63
2023-12-14T01:49:10.847Z,8.63
2023-12-14T01:51:39.309Z,8.51
2023-12-14T01:54:07.495Z,8.54
2023-12-14T01:56:35.710Z,8.58
2023-12-14T01:59:04.104Z,8.50
2023-12-14T02:01:43.470Z,8.43
2023-12-14T02:04:12.959Z,8.38
2023-12-14T02:06:41.835Z,8.35
2023-12-14T02:09:10.876Z,8.47
2023-12-14T02:11:39.361Z,8.51
2023-12-14T02:14:10.631Z,8.34
2023-12-14T02:16:40.488Z,8.33
2023-12-14T02:19:09.264Z,8.38
2023-12-14T02:21:37.549Z,8.47
2023-12-14T02:24:07.443Z,8.48
2023-12-14T02:26:35.594Z,8.59
2023-12-14T02:29:03.796Z,8.60
2023-12-14T02:31:32.141Z,8.51
2023-12-14T02:34:00.397Z,8.45
2023-12-14T02:36:28.550Z,8.63
2023-12-14T02:38:56.861Z,8.60
2023-12-14T02:41:27.436Z,8.51
2023-12-14T02:43:55.569Z,8.41
2023-12-14T02:46:23.945Z,8.62
2023-12-14T02:48:52.157Z,8.66
2023-12-14T02:51:20.467Z,8.63
2023-12-14T02:53:48.645Z,8.67
2023-12-14T02:56:16.811Z,8.68
2023-12-14T02:58:50.320Z,8.64
2023-12-14T03:01:21.441Z,8.76
2023-12-14T03:03:49.843Z,8.57
2023-12-14T03:06:18.115Z,8.72
2023-12-14T03:08:46.281Z,8.66
2023-12-14T03:11:24.766Z,8.60
2023-12-14T03:13:54.473Z,8.64
2023-12-14T03:16:23.584Z,8.58
2023-12-14T03:18:54.282Z,8.61
2023-12-14T03:21:22.711Z,8.64
2023-12-14T03:23:51.070Z,8.60
2023-12-14T03:26:19.237Z,8.48
2023-12-14T03:28:47.441Z,8.51
2023-12-14T03:31:17.223Z,8.49
2023-12-14T03:33:45.789Z,8.42
2023-12-14T03:36:14.069Z,8.50
2023-12-14T03:38:42.191Z,8.53
2023-12-14T03:41:10.687Z,8.34
2023-12-14T03:43:39.137Z,8.24
2023-12-14T03:46:08.043Z,8.40
2023-12-14T03:48:37.540Z,8.60
2023-12-14T03:51:06.934Z,8.45
2023-12-14T03:53:35.273Z,8.55
2023-12-14T03:56:03.633Z,8.54
2023-12-14T03:58:31.869Z,8.57
2023-12-14T04:01:00.095Z,8.34
2023-12-14T04:03:28.276Z,8.35
2023-12-14T04:05:58.121Z,8.33
2023-12-14T04:08:26.355Z,8.36
2023-12-14T04:10:54.576Z,8.35
2023-12-14T04:13:22.760Z,8.20
2023-12-14T04:15:50.957Z,8.14
2023-12-14T04:18:19.153Z,8.12
2023-12-14T04:20:47.411Z,7.96
2023-12-14T04:23:17.138Z,7.80
2023-12-14T04:25:45.402Z,7.85
2023-12-14T04:28:13.639Z,7.84
2023-12-14T04:30:42.648Z,7.63
2023-12-14T04:33:10.851Z,7.62
2023-12-14T04:35:39.130Z,7.50
2023-12-14T04:38:07.302Z,7.62
2023-12-14T04:40:36.819Z,7.64
2023-12-14T04:43:04.958Z,7.67
2023-12-14T04:45:33.453Z,7.69
2023-12-14T04:48:01.852Z,7.62
2023-12-14T04:50:30.153Z,7.53
2023-12-14T04:52:58.317Z,7.55
2023-12-14T04:55:26.541Z,7.68
2023-12-14T04:57:56.134Z,7.67
2023-12-14T05:00:24.497Z,7.74
2023-12-14T05:02:52.622Z,7.81
2023-12-14T05:05:20.737Z,7.82
2023-12-14T05:07:48.967Z,7.87
2023-12-14T05:10:17.461Z,7.85
2023-12-14T05:12:45.834Z,7.79
2023-12-14T05:15:15.583Z,7.86
2023-12-14T05:17:43.807Z,7.96
2023-12-14T05:20:13.418Z,8.10
2023-12-14T05:22:41.660Z,8.08
2023-12-14T05:25:11.102Z,7.94
2023-12-14T05:27:39.367Z,7.85
2023-12-14T05:30:09.653Z,7.80
2023-12-14T05:32:39.627Z,7.94
2023-12-14T05:35:10.701Z,8.05
2023-12-14T05:37:41.059Z,7.97
2023-12-14T05:40:12.035Z,8.18
2023-12-14T05:42:40.412Z,8.29
2023-12-14T05:45:12.703Z,8.44
2023-12-14T05:47:43.469Z,8.36
2023-12-14T05:50:11.737Z,8.40
2023-12-14T05:52:41.632Z,8.41
2023-12-14T05:55:11.601Z,8.29
2023-12-14T05:57:39.938Z,8.16
2023-12-14T06:00:09.895Z,8.17
2023-12-14T06:02:39.649Z,8.10
2023-12-14T06:05:11.055Z,8.02
2023-12-14T06:07:39.765Z,7.99
2023-12-14T06:10:09.759Z,7.93
2023-12-14T06:12:38.280Z,7.88
2023-12-14T06:15:08.734Z,7.77
2023-12-14T06:17:38.456Z,7.82
2023-12-14T06:20:10.105Z,7.73
2023-12-14T06:22:39.207Z,7.66
2023-12-14T06:25:08.413Z,7.57
2023-12-14T06:27:36.741Z,7.67
2023-12-14T06:30:05.799Z,7.68
2023-12-14T06:32:34.477Z,7.76
2023-12-14T06:35:03.136Z,7.72
2023-12-14T06:37:32.918Z,7.68
2023-12-14T06:40:01.324Z,7.71
2023-12-14T06:42:30.032Z,7.73
2023-12-14T06:44:58.338Z,7.72
2023-12-14T06:47:26.857Z,7.69
2023-12-14T06:49:56.949Z,7.71
2023-12-14T06:52:25.321Z,7.77
2023-12-14T06:54:54.926Z,7.86
2023-12-14T06:57:24.775Z,7.69
2023-12-14T06:59:54.629Z,7.74
2023-12-14T07:02:22.895Z,7.79
2023-12-14T07:04:51.167Z,7.58
2023-12-14T07:07:19.457Z,7.57
2023-12-14T07:09:48.193Z,7.70
2023-12-14T07:12:17.891Z,7.70
2023-12-14T07:14:46.196Z,7.78
2023-12-14T07:17:14.495Z,7.88
2023-12-14T07:19:42.828Z,7.98
2023-12-14T07:22:10.072Z,7.99
2023-12-14T07:24:44.912Z,8.19
2023-12-14T07:27:21.991Z,8.17
2023-12-14T07:29:50.432Z,7.97
2023-12-14T07:32:18.789Z,8.09
2023-12-14T07:34:47.042Z,8.26
2023-12-14T07:37:15.589Z,8.27
2023-12-14T07:39:44.059Z,8.25
2023-12-14T07:42:12.382Z,8.09
2023-12-14T07:44:42.501Z,8.11
2023-12-14T07:47:10.769Z,8.12
2023-12-14T07:49:39.201Z,8.15
2023-12-14T07:52:08.658Z,8.41
2023-12-14T07:54:37.565Z,8.32
2023-12-14T07:57:06.164Z,8.35
2023-12-14T07:59:34.784Z,8.49
2023-12-14T08:02:05.015Z,8.62
2023-12-14T08:04:37.739Z,8.60
2023-12-14T08:07:06.131Z,8.57
2023-12-14T08:09:35.061Z,8.47
2023-12-14T08:12:03.370Z,8.47
2023-12-14T08:14:33.943Z,8.62
2023-12-14T08:17:02.245Z,8.65
2023-12-14T08:19:32.244Z,8.92
2023-12-14T08:22:01.209Z,9.01
2023-12-14T08:24:29.588Z,9.07
2023-12-14T08:26:57.923Z,9.29
2023-12-14T08:29:26.177Z,9.33
2023-12-14T08:31:58.114Z,9.48
2023-12-14T08:34:26.902Z,9.48
2023-12-14T08:36:58.250Z,9.50
2023-12-14T08:39:27.764Z,9.66
2023-12-14T08:41:56.099Z,9.59
2023-12-14T08:44:24.467Z,9.48
2023-12-14T08:46:52.971Z,9.62
2023-12-14T08:49:21.386Z,9.21
2023-12-14T08:51:49.624Z,9.50
2023-12-14T08:54:19.594Z,9.40
2023-12-14T08:56:48.689Z,9.69
2023-12-14T08:59:17.022Z,9.70
2023-12-14T09:01:45.498Z,9.80
2023-12-14T09:04:14.365Z,9.75
2023-12-14T09:06:45.919Z,9.87
2023-12-14T09:09:14.321Z,9.62
2023-12-14T09:11:44.010Z,9.54
2023-12-14T09:14:12.454Z,9.81
2023-12-14T09:16:40.788Z,9.65
2023-12-14T09:19:09.141Z,9.37
2023-12-14T09:21:44.271Z,9.27
2023-12-14T09:24:14.991Z,9.13
2023-12-14T09:26:44.693Z,9.40
2023-12-14T09:29:13.197Z,9.22
2023-12-14T09:31:44.812Z,9.09
2023-12-14T09:34:14.002Z,9.07
2023-12-14T09:36:42.587Z,8.90
2023-12-14T09:39:11.717Z,9.35
2023-12-14T09:41:40.710Z,9.22
2023-12-14T09:44:11.088Z,9.30
2023-12-14T09:46:45.736Z,9.38
2023-12-14T09:49:15.958Z,9.53
2023-12-14T09:51:44.457Z,9.59
2023-12-14T09:54:12.911Z,9.52
2023-12-14T09:56:49.219Z,9.30
2023-12-14T09:59:19.019Z,9.48
2023-12-14T10:01:47.691Z,9.45
2023-12-14T10:04:21.591Z,9.65
2023-12-14T10:06:50.598Z,9.73
2023-12-14T10:09:25.684Z,9.65
2023-12-14T10:12:06.311Z,9.78
2023-12-14T10:14:37.102Z,9.81
2023-12-14T10:17:18.776Z,9.77
2023-12-14T10:19:48.794Z,9.90
2023-12-14T10:22:19.652Z,9.66
2023-12-14T10:24:49.410Z,9.90
2023-12-14T10:27:18.738Z,9.81
2023-12-14T10:29:48.624Z,9.89
2023-12-14T10:32:16.983Z,10.14
2023-12-14T10:34:45.325Z,10.13
2023-12-14T10:37:15.522Z,10.00
2023-12-14T10:39:45.480Z,9.92
2023-12-14T10:42:21.615Z,9.94
2023-12-14T10:45:11.728Z,10.25
2023-12-14T10:47:48.497Z,10.31
2023-12-14T10:50:18.063Z,10.27
2023-12-14T10:52:48.009Z,10.20
2023-12-14T10:55:24.829Z,10.15
2023-12-14T10:57:54.270Z,10.11
2023-12-14T11:00:24.206Z,10.14
2023-12-14T11:02:54.284Z,10.29
2023-12-14T11:05:30.480Z,10.54
2023-12-14T11:08:05.132Z,10.21
2023-12-14T11:10:41.492Z,10.48
2023-12-14T11:13:13.436Z,10.65
2023-12-14T11:15:51.665Z,10.97
2023-12-14T11:18:28.804Z,11.21
2023-12-14T11:21:01.549Z,11.32
2023-12-14T11:23:34.948Z,11.04
2023-12-14T11:26:06.828Z,10.77
2023-12-14T11:28:37.819Z,10.65
2023-12-14T11:31:11.619Z,10.82
2023-12-14T11:33:43.686Z,10.74
2023-12-14T11:36:15.248Z,10.47
2023-12-14T11:38:45.019Z,10.91
2023-12-14T11:41:15.068Z,10.72
2023-12-14T11:43:45.677Z,10.70
2023-12-14T11:46:16.915Z,10.85
2023-12-14T11:48:47.275Z,10.50
2023-12-14T11:51:15.747Z,10.65
2023-12-14T11:53:49.072Z,10.69
2023-12-14T11:56:19.933Z,10.56
2023-12-14T11:58:49.908Z,10.88
2023-12-14T12:01:22.323Z,10.78
2023-12-14T12:03:50.967Z,10.66
2023-12-14T12:06:24.196Z,10.61
2023-12-14T12:08:53.421Z,10.61
2023-12-14T12:11:25.216Z,10.74
2023-12-14T12:13:54.274Z,10.82
2023-12-14T12:16:24.439Z,11.04
2023-12-14T12:18:54.061Z,11.20
2023-12-14T12:21:22.606Z,11.41
2023-12-14T12:23:50.978Z,11.28
2023-12-14T12:26:19.395Z,11.23
2023-12-14T12:28:49.299Z,10.89
2023-12-14T12:31:18.147Z,10.47
2023-12-14T12:33:48.242Z,10.35
2023-12-14T12:36:16.519Z,10.58
2023-12-14T12:38:44.779Z,11.00
2023-12-14T12:41:13.164Z,10.81
2023-12-14T12:43:41.478Z,10.90
2023-12-14T12:46:09.776Z,10.81
2023-12-14T12:48:38.897Z,10.48
2023-12-14T12:51:09.285Z,10.25
2023-12-14T12:53:37.691Z,10.23
2023-12-14T12:56:07.011Z,10.25
2023-12-14T12:58:35.334Z,10.17
2023-12-14T13:01:03.838Z,10.38
2023-12-14T13:03:32.240Z,10.47
2023-12-14T13:06:00.666Z,10.33
2023-12-14T13:08:30.369Z,10.14
2023-12-14T13:10:58.684Z,10.19
2023-12-14T13:13:27.001Z,10.00
2023-12-14T13:15:55.258Z,9.92
2023-12-14T13:18:23.599Z,9.80
2023-12-14T13:20:51.934Z,10.05
2023-12-14T13:23:20.349Z,9.99
2023-12-14T13:25:50.357Z,10.06
2023-12-14T13:28:18.915Z,10.05
2023-12-14T13:30:47.423Z,10.09
2023-12-14T13:33:16.020Z,10.34
2023-12-14T13:35:44.735Z,9.99
2023-12-14T13:38:13.216Z,10.20
2023-12-14T13:40:41.701Z,10.17
2023-12-14T13:43:12.358Z,9.94
2023-12-14T13:45:43.112Z,10.14
2023-12-14T13:48:12.327Z,10.40
2023-12-14T13:50:41.605Z,10.14
2023-12-14T13:53:10.061Z,10.32
2023-12-14T13:55:38.393Z,10.26
2023-12-14T13:58:06.796Z,10.44
2023-12-14T14:00:37.260Z,10.53
2023-12-14T14:03:06.766Z,10.53
2023-12-14T14:05:35.772Z,10.39
2023-12-14T14:08:04.947Z,10.45
2023-12-14T14:10:33.372Z,10.17
2023-12-14T14:13:01.845Z,10.34
2023-12-14T14:15:30.135Z,10.28
2023-12-14T14:17:59.864Z,10.40
2023-12-14T14:20:28.264Z,10.10
2023-12-14T14:22:57.302Z,10.15
2023-12-14T14:25:25.741Z,10.08
2023-12-14T14:27:54.279Z,10.17
2023-12-14T14:30:22.833Z,10.18
2023-12-14T14:32:51.185Z,10.13
2023-12-14T14:35:21.853Z,10.02
2023-12-14T14:37:51.295Z,9.95
2023-12-14T14:40:19.853Z,10.06
2023-12-14T14:42:48.221Z,9.74
2023-12-14T14:45:16.685Z,9.59
2023-12-14T14:47:45.089Z,9.87
2023-12-14T14:50:13.781Z,9.86
2023-12-14T14:52:43.596Z,9.86
2023-12-14T14:55:11.955Z,9.72
2023-12-14T14:57:40.262Z,9.56
2023-12-14T15:00:10.385Z,9.66
2023-12-14T15:02:38.882Z,9.59
2023-12-14T15:05:08.250Z,9.53
2023-12-14T15:07:36.592Z,9.65
2023-12-14T15:10:07.899Z,9.52
2023-12-14T15:12:36.673Z,9.47
2023-12-14T15:15:09.206Z,9.39
2023-12-14T15:17:39.293Z,9.35
2023-12-14T15:20:09.092Z,9.38
2023-12-14T15:22:38.045Z,9.38
2023-12-14T15:25:09.110Z,9.09
2023-12-14T15:27:38.917Z,9.08
2023-12-14T15:30:10.262Z,9.08
2023-12-14T15:32:40.856Z,9.16
2023-12-14T15:35:10.458Z,9.27
2023-12-14T15:37:38.776Z,9.20
2023-12-14T15:40:10.627Z,9.13
2023-12-14T15:42:39.193Z,9.14
2023-12-14T15:45:10.588Z,9.21
2023-12-14T15:47:39.212Z,9.31
2023-12-14T15:50:09.505Z,9.07
2023-12-14T15:52:38.177Z,9.13
2023-12-14T15:55:09.328Z,9.11
2023-12-14T15:57:38.408Z,9.06
2023-12-14T16:00:09.452Z,9.05
2023-12-14T16:02:39.202Z,9.04
2023-12-14T16:05:09.197Z,9.08
2023-12-14T16:07:38.018Z,9.21
2023-12-14T16:10:09.610Z,9.30
2023-12-14T16:12:38.438Z,9.23
2023-12-14T16:15:08.666Z,9.18
2023-12-14T16:17:37.042Z,9.48
2023-12-14T16:20:07.383Z,9.34
2023-12-14T16:22:36.780Z,9.43
2023-12-14T16:25:05.753Z,9.54
2023-12-14T16:27:35.591Z,9.47
2023-12-14T16:30:04.554Z,9.40
2023-12-14T16:32:33.528Z,9.01
2023-12-14T16:35:02.158Z,9.04
2023-12-14T16:37:32.009Z,8.97
2023-12-14T16:40:00.615Z,8.78
2023-12-14T16:42:29.288Z,8.73
2023-12-14T16:44:59.016Z,8.77
2023-12-14T16:47:27.343Z,8.85
2023-12-14T16:49:55.765Z,8.92
2023-12-14T16:52:24.130Z,9.04
2023-12-14T16:54:52.403Z,8.89
2023-12-14T16:57:22.620Z,9.00
2023-12-14T16:59:51.018Z,8.97
2023-12-14T17:02:20.786Z,8.96
2023-12-14T17:04:49.147Z,8.96
2023-12-14T17:07:17.924Z,8.84
2023-12-14T17:09:46.153Z,8.87
2023-12-14T17:12:14.496Z,8.87
2023-12-14T17:14:43.046Z,8.93
2023-12-14T17:17:11.343Z,9.01
2023-12-14T17:19:41.312Z,8.92
2023-12-14T17:22:09.557Z,8.85
2023-12-14T17:24:37.836Z,8.74
2023-12-14T17:27:06.439Z,8.93
2023-12-14T17:29:35.020Z,8.71
2023-12-14T17:32:04.017Z,8.79
2023-12-14T17:34:32.458Z,8.59
2023-12-14T17:37:02.066Z,8.72
2023-12-14T17:39:30.441Z,8.80
2023-12-14T17:41:58.845Z,8.83
2023-12-14T17:44:27.882Z,8.84
2023-12-14T17:46:58.677Z,8.61
2023-12-14T17:49:27.138Z,8.53
2023-12-14T17:51:55.518Z,8.57
2023-12-14T17:54:25.951Z,8.63
2023-12-14T17:56:54.269Z,8.67
2023-12-14T17:59:22.690Z,8.63
2023-12-14T18:01:52.702Z,8.64
2023-12-14T18:04:22.262Z,8.65
2023-12-14T18:06:50.538Z,8.67
2023-12-14T18:09:19.656Z,8.65
2023-12-14T18:11:49.320Z,8.66
2023-12-14T18:14:17.696Z,8.62
2023-12-14T18:16:46.037Z,8.65
2023-12-14T18:19:14.947Z,8.71
2023-12-14T18:21:45.861Z,8.67
2023-12-14T18:24:14.170Z,8.78
2023-12-14T18:26:42.422Z,8.69
2023-12-14T18:29:12.338Z,8.60
2023-12-14T18:31:40.679Z,8.62
2023-12-14T18:34:09.003Z,8.61
2023-12-14T18:36:37.742Z,8.51
2023-12-14T18:39:05.995Z,8.54
2023-12-14T18:41:34.440Z,8.54
2023-12-14T18:44:03.339Z,8.62
2023-12-14T18:46:33.142Z,8.77
2023-12-14T18:49:01.450Z,8.74
2023-12-14T18:51:29.894Z,8.78
2023-12-14T18:53:58.273Z,8.89
2023-12-14T18:56:28.796Z,8.95
2023-12-14T18:58:58.303Z,8.95
2023-12-14T19:01:26.801Z,8.59
2023-12-14T19:03:57.344Z,8.42
2023-12-14T19:06:25.781Z,8.45
2023-12-14T19:08:54.026Z,8.67
2023-12-14T19:11:22.667Z,8.72
2023-12-14T19:13:52.390Z,8.69
2023-12-14T19:16:25.823Z,8.71
2023-12-14T19:18:55.169Z,8.58
2023-12-14T19:21:25.780Z,8.65
2023-12-14T19:23:54.916Z,8.24
2023-12-14T19:26:25.835Z,8.49
2023-12-14T19:28:56.763Z,8.53
2023-12-14T19:31:26.943Z,8.61
2023-12-14T19:33:55.772Z,8.49
2023-12-14T19:36:25.569Z,8.22
2023-12-14T19:38:54.654Z,8.12
2023-12-14T19:41:23.679Z,8.19
2023-12-14T19:43:52.097Z,8.14
2023-12-14T19:46:22.276Z,7.89
2023-12-14T19:48:50.598Z,8.01
2023-12-14T19:51:18.888Z,8.04
2023-12-14T19:53:48.563Z,8.07
2023-12-14T19:56:17.052Z,8.20
2023-12-14T19:58:46.796Z,8.11
2023-12-14T20:01:15.390Z,8.14
2023-12-14T20:03:43.768Z,8.22
2023-12-14T20:06:21.488Z,8.20
2023-12-14T20:08:51.356Z,8.22
2023-12-14T20:11:20.735Z,8.05
2023-12-14T20:13:49.723Z,7.86
2023-12-14T20:16:18.132Z,7.88
2023-12-14T20:18:46.701Z,8.07
2023-12-14T20:21:15.137Z,8.12
2023-12-14T20:23:43.407Z,8.23
2023-12-14T20:26:22.403Z,8.12
2023-12-14T20:28:54.530Z,7.97
2023-12-14T20:31:22.923Z,7.96
2023-12-14T20:33:52.343Z,7.84
2023-12-14T20:36:20.836Z,7.57
2023-12-14T20:38:49.454Z,7.70
2023-12-14T20:41:20.411Z,7.66
2023-12-14T20:43:48.812Z,7.71
2023-12-14T20:46:17.338Z,7.49
2023-12-14T20:48:45.822Z,7.40
2023-12-14T20:51:15.233Z,7.44
2023-12-14T20:53:43.866Z,7.49
2023-12-14T20:56:12.330Z,7.28
2023-12-14T20:58:43.142Z,7.34
2023-12-14T21:01:11.442Z,7.43
2023-12-14T21:03:40.399Z,7.45
2023-12-14T21:06:09.795Z,7.36
2023-12-14T21:08:38.195Z,7.32
2023-12-14T21:11:07.476Z,7.25
2023-12-14T21:13:36.366Z,7.24
2023-12-14T21:16:07.287Z,7.30
2023-12-14T21:18:35.894Z,7.24
2023-12-14T21:21:06.007Z,7.40
2023-12-14T21:23:34.388Z,7.24
2023-12-14T21:26:06.069Z,7.34
2023-12-14T21:28:36.197Z,7.26
2023-12-14T21:31:06.734Z,7.43
2023-12-14T21:33:35.193Z,7.17
2023-12-14T21:36:03.930Z,7.46
2023-12-14T21:38:33.411Z,7.07
2023-12-14T21:41:01.856Z,7.28
2023-12-14T21:43:30.378Z,7.14
2023-12-14T21:45:58.644Z,7.09
2023-12-14T21:48:28.419Z,6.85
2023-12-14T21:50:56.928Z,7.04
2023-12-14T21:53:25.986Z,6.96
2023-12-14T21:55:54.354Z,7.03
2023-12-14T21:58:22.577Z,6.98
2023-12-14T22:00:50.869Z,6.99
2023-12-14T22:03:19.249Z,7.11
2023-12-14T22:05:49.151Z,7.09
2023-12-14T22:08:17.533Z,6.99
2023-12-14T22:10:45.943Z,6.69
2023-12-14T22:13:14.272Z,7.09
2023-12-14T22:15:42.627Z,7.10
2023-12-14T22:18:11.207Z,6.97
2023-12-14T22:20:39.551Z,7.20
2023-12-14T22:23:09.284Z,7.40
2023-12-14T22:25:37.529Z,7.54
2023-12-14T22:28:06.382Z,7.44
2023-12-14T22:30:34.762Z,7.30
2023-12-14T22:33:03.096Z,7.41
2023-12-14T22:35:31.520Z,7.18
2023-12-14T22:37:59.869Z,7.29
2023-12-14T22:40:29.477Z,7.27
2023-12-14T22:42:57.914Z,7.34
2023-12-14T22:45:26.268Z,7.18
2023-12-14T22:47:54.866Z,7.01
2023-12-14T22:50:23.262Z,6.97
2023-12-14T22:52:51.669Z,7.07
2023-12-14T22:55:19.911Z,6.98
2023-12-14T22:57:49.682Z,6.87
2023-12-14T23:00:22.890Z,6.81
2023-12-14T23:02:51.292Z,6.82
2023-12-14T23:05:19.729Z,6.80
2023-12-14T23:07:48.143Z,6.69
2023-12-14T23:10:16.701Z,6.62
2023-12-14T23:12:44.966Z,6.57
2023-12-14T23:15:15.920Z,6.62
2023-12-14T23:17:44.576Z,6.71
2023-12-14T23:20:13.783Z,6.61
2023-12-14T23:22:42.068Z,6.74
2023-12-14T23:25:10.882Z,6.84
2023-12-14T23:27:39.769Z,6.76
2023-12-14T23:30:09.562Z,6.89
2023-12-14T23:32:39.394Z,7.09
2023-12-14T23:35:09.084Z,6.94
2023-12-14T23:37:37.781Z,6.80
2023-12-14T23:40:07.377Z,6.86
2023-12-14T23:42:35.602Z,6.89
2023-12-14T23:45:03.911Z,6.79
2023-12-14T23:47:32.275Z,6.82
2023-12-14T23:50:02.127Z,6.67
2023-12-14T23:52:30.399Z,6.82
2023-12-14T23:54:58.798Z,6.59
2023-12-14T23:57:27.027Z,6.60
2023-12-14T23:59:55.297Z,6.96
